Stokesley, United Kingdom
Current Conditions -  °F | °C
As of 6:20 PM on Thursday 29 Jan 2015 (Local Time) from EGNV Reporting Station
Scattered Clouds Scattered Clouds  
Wind Chill: 28°   Ceiling: Unl
Heat Index: 34°   Visibility: 6mi
Dew Point: 30°   Wind: 7mph
Humidity: 87%   Direction: 230°SW
Pressure: 28.73"   Gusts: NA
Location:  54.47°N, 1.19°W
Report Text: EGNV 291820Z 23006KT 9999 FEW023 SCT030 01/M01 Q0973
Loading
Personal Weather Stations






























Interactive Weather Map New forecast layout! Learn more

10-Day Weather Forecast

Advertisements
Track Severe Weather on mobile